Time;durP1;ratioP1;P1;durP2;ratioP2;P2;SDS_P1;SDS_P2;PMS_P1;PMS_P2;Temp;Humidity;BMP_temperature;BMP_pressure;BME280_temperature;BME280_humidity;BME280_pressure;Samples;Min_cycle;Max_cycle;Signal;HPM_P1;HPM_P2
2021/11/25 00:01:08;;;;;;;8.75;1.55;;;22.90;49.90;;;;;;5089037;28;20091;-74
2021/11/25 00:03:35;;;;;;;7.63;1.88;;;22.90;49.90;;;;;;5089959;28;20107;-73
2021/11/25 00:06:01;;;;;;;9.20;1.10;;;22.80;49.90;;;;;;5091356;28;20089;-73
2021/11/25 00:08:28;;;;;;;11.07;3.28;;;22.80;49.90;;;;;;5089633;28;20783;-73
2021/11/25 00:10:54;;;;;;;5.07;1.83;;;22.80;49.80;;;;;;5090703;28;20016;-73
2021/11/25 00:13:21;;;;;;;7.07;1.55;;;22.80;49.80;;;;;;5066156;28;20045;-73
2021/11/25 00:15:48;;;;;;;11.52;1.90;;;22.80;49.80;;;;;;5070014;28;20389;-73
2021/11/25 00:18:17;;;;;;;4.15;1.20;;;22.80;49.80;;;;;;5068177;28;20039;-73
2021/11/25 00:20:44;;;;;;;9.63;1.80;;;22.70;49.60;;;;;;5069981;28;20475;-72
2021/11/25 00:23:11;;;;;;;8.55;1.90;;;22.70;49.70;;;;;;5067125;28;20031;-73
2021/11/25 00:25:39;;;;;;;13.43;2.17;;;22.70;49.60;;;;;;5067776;28;20384;-73
2021/11/25 00:28:06;;;;;;;5.00;1.40;;;22.70;49.50;;;;;;5068235;28;20657;-73
2021/11/25 00:30:32;;;;;;;6.55;2.30;;;22.70;49.50;;;;;;5067478;28;20387;-73
2021/11/25 00:32:59;;;;;;;5.68;1.88;;;22.70;49.40;;;;;;5070395;28;20068;-72
2021/11/25 00:35:25;;;;;;;6.55;1.48;;;22.70;49.50;;;;;;5067225;28;20012;-73
2021/11/25 00:37:52;;;;;;;4.00;1.35;;;22.70;49.40;;;;;;5068438;28;20032;-73
2021/11/25 00:40:19;;;;;;;5.20;1.23;;;22.60;49.40;;;;;;5060710;28;20009;-73
2021/11/25 00:42:47;;;;;;;7.32;1.90;;;22.60;49.50;;;;;;5068455;28;20032;-73
2021/11/25 00:45:15;;;;;;;6.40;1.75;;;22.60;49.50;;;;;;5069001;28;20545;-73
2021/11/25 00:47:42;;;;;;;6.45;1.83;;;22.60;49.50;;;;;;5066799;28;20020;-73
2021/11/25 00:50:12;;;;;;;8.23;2.22;;;22.60;49.60;;;;;;5068904;28;20070;-73
2021/11/25 00:52:39;;;;;;;5.93;1.63;;;22.50;49.50;;;;;;5066751;28;20044;-73
2021/11/25 00:55:08;;;;;;;12.80;1.70;;;22.50;49.50;;;;;;5068584;28;20021;-72
2021/11/25 00:57:34;;;;;;;5.10;1.92;;;22.50;49.40;;;;;;5067371;28;20016;-73
2021/11/25 01:00:01;;;;;;;6.00;2.08;;;22.50;49.40;;;;;;5068919;28;20021;-73
2021/11/25 01:02:28;;;;;;;7.85;3.35;;;22.50;49.30;;;;;;5067742;28;20471;-73
2021/11/25 01:04:54;;;;;;;4.35;2.30;;;22.50;49.20;;;;;;5067504;28;20039;-73
2021/11/25 01:07:21;;;;;;;8.18;2.78;;;22.50;49.20;;;;;;5068954;28;20060;-72
2021/11/25 01:09:47;;;;;;;11.25;2.63;;;22.50;49.10;;;;;;5065399;28;20020;-73
2021/11/25 01:12:15;;;;;;;5.03;2.58;;;22.40;49.00;;;;;;5080552;28;20487;-73
2021/11/25 01:14:41;;;;;;;5.68;2.60;;;22.40;48.90;;;;;;5088019;28;20386;-72
2021/11/25 01:17:08;;;;;;;7.35;2.47;;;22.40;48.90;;;;;;5089102;28;20027;-72
2021/11/25 01:19:36;;;;;;;6.65;1.88;;;22.40;48.80;;;;;;5087644;28;20020;-72
2021/11/25 01:22:04;;;;;;;7.30;1.90;;;22.40;48.90;;;;;;5085875;28;20024;-72
2021/11/25 01:24:30;;;;;;;8.18;1.77;;;22.40;48.90;;;;;;5086755;28;20042;-73
2021/11/25 01:26:57;;;;;;;11.88;4.40;;;22.30;48.90;;;;;;5087465;28;20036;-73
2021/11/25 01:29:23;;;;;;;7.45;1.38;;;22.30;48.90;;;;;;5088527;28;20024;-72
2021/11/25 01:31:50;;;;;;;4.60;1.15;;;22.30;49.20;;;;;;5086583;28;20074;-72
2021/11/25 01:34:17;;;;;;;2.58;1.33;;;22.30;49.00;;;;;;5088135;28;20024;-72
2021/11/25 01:36:43;;;;;;;4.22;1.27;;;22.30;49.10;;;;;;5088978;28;20474;-73
2021/11/25 01:39:10;;;;;;;4.13;1.02;;;22.30;49.10;;;;;;5086196;28;20118;-72
2021/11/25 01:41:38;;;;;;;3.63;1.40;;;22.30;49.20;;;;;;5087779;28;20047;-73
2021/11/25 01:44:06;;;;;;;10.73;1.40;;;22.30;49.20;;;;;;5087816;28;20036;-73
2021/11/25 01:46:32;;;;;;;5.28;1.45;;;22.30;49.20;;;;;;5089062;28;20065;-72
2021/11/25 01:48:59;;;;;;;5.25;1.25;;;22.30;49.20;;;;;;5086234;28;20392;-73
2021/11/25 01:51:25;;;;;;;4.78;2.13;;;22.30;49.20;;;;;;5087598;28;20027;-73
2021/11/25 01:53:53;;;;;;;5.30;1.33;;;22.30;49.30;;;;;;5088149;28;20016;-75
2021/11/25 01:56:20;;;;;;;4.95;1.10;;;22.30;49.30;;;;;;5085592;28;20352;-73
2021/11/25 01:58:48;;;;;;;4.90;1.65;;;22.20;49.40;;;;;;5086556;28;20016;-73
2021/11/25 02:01:16;;;;;;;5.00;1.10;;;22.20;49.40;;;;;;5086027;28;20355;-73
2021/11/25 02:03:43;;;;;;;4.90;1.00;;;22.20;49.40;;;;;;5088278;28;20459;-72
2021/11/25 02:06:10;;;;;;;6.13;1.85;;;22.20;49.50;;;;;;5086345;28;20043;-73
2021/11/25 02:08:37;;;;;;;8.32;1.13;;;22.20;49.50;;;;;;5087934;28;20024;-73
2021/11/25 02:11:05;;;;;;;5.95;1.15;;;22.20;49.50;;;;;;5086765;28;20024;-72
2021/11/25 02:13:32;;;;;;;4.32;1.40;;;22.20;49.50;;;;;;5087591;28;20071;-72
2021/11/25 02:15:59;;;;;;;5.25;1.50;;;22.20;49.60;;;;;;5086114;28;20093;-72
2021/11/25 02:18:26;;;;;;;9.48;1.40;;;22.20;49.60;;;;;;5086777;28;20532;-72
2021/11/25 02:20:56;;;;;;;5.13;1.27;;;22.10;49.60;;;;;;5085565;28;20024;-72
2021/11/25 02:23:23;;;;;;;4.22;1.23;;;22.10;49.50;;;;;;5086089;28;20105;-73
2021/11/25 02:25:50;;;;;;;4.82;1.75;;;22.10;49.50;;;;;;5087885;28;20497;-73
2021/11/25 02:28:22;;;;;;;4.97;1.73;;;22.10;49.40;;;;;;5087532;28;20021;-72
2021/11/25 02:30:50;;;;;;;5.32;1.95;;;22.10;50.00;;;;;;5086607;28;20034;-73
2021/11/25 02:33:17;;;;;;;5.32;1.20;;;22.10;49.40;;;;;;5086430;28;20078;-73
2021/11/25 02:35:44;;;;;;;8.13;1.55;;;22.10;49.30;;;;;;5086281;28;20042;-73
2021/11/25 02:38:13;;;;;;;8.27;1.30;;;22.00;49.30;;;;;;5087148;28;20021;-73
2021/11/25 02:40:51;;;;;;;6.07;1.92;;;22.00;49.20;;;;;;5086919;28;20028;-73
2021/11/25 02:43:27;;;;;;;6.25;1.10;;;22.00;49.20;;;;;;5085875;28;20012;-72
2021/11/25 02:46:20;;;;;;;5.15;1.63;;;22.00;49.20;;;;;;5086710;28;20051;-73
2021/11/25 02:48:54;;;;;;;11.82;1.80;;;22.00;49.20;;;;;;5081560;28;20047;-73
2021/11/25 02:51:24;;;;;;;5.73;1.17;;;22.00;49.30;;;;;;5087372;28;20035;-73
2021/11/25 02:53:51;;;;;;;3.72;1.35;;;21.90;49.20;;;;;;5085708;28;20275;-72
2021/11/25 02:56:21;;;;;;;10.65;1.80;;;22.00;49.30;;;;;;5087262;28;20119;-73
2021/11/25 02:58:49;;;;;;;8.05;2.30;;;21.90;49.30;;;;;;5085925;28;20032;-72
2021/11/25 03:01:21;;;;;;;7.50;1.70;;;21.90;49.30;;;;;;5086295;28;20062;-73
2021/11/25 03:03:48;;;;;;;9.10;2.15;;;21.90;49.30;;;;;;5086298;28;20024;-73
2021/11/25 03:06:16;;;;;;;8.43;1.88;;;21.90;49.30;;;;;;5085255;28;20038;-73
2021/11/25 03:08:42;;;;;;;8.65;3.80;;;21.90;49.40;;;;;;5085723;28;20027;-72
2021/11/25 03:11:15;;;;;;;4.68;1.35;;;21.90;49.50;;;;;;5085362;28;20024;-72
2021/11/25 03:13:44;;;;;;;5.47;1.20;;;21.90;49.50;;;;;;5084981;28;20036;-73
2021/11/25 03:16:14;;;;;;;6.32;1.42;;;21.90;49.60;;;;;;5085431;28;20107;-72
2021/11/25 03:18:40;;;;;;;9.55;1.52;;;21.90;49.60;;;;;;5085183;28;20028;-73
2021/11/25 03:21:08;;;;;;;11.52;1.50;;;21.90;49.60;;;;;;5086639;28;20023;-73
2021/11/25 03:23:37;;;;;;;9.82;1.38;;;21.80;49.60;;;;;;5084892;28;20028;-72
2021/11/25 03:26:07;;;;;;;2.78;1.25;;;21.90;49.70;;;;;;5087357;28;20028;-74
2021/11/25 03:28:38;;;;;;;7.63;1.80;;;21.80;50.00;;;;;;5085310;28;20378;-72
2021/11/25 03:31:05;;;;;;;7.82;1.67;;;21.80;49.80;;;;;;5086580;28;20111;-73
2021/11/25 03:33:33;;;;;;;14.27;1.52;;;21.80;49.90;;;;;;5086073;28;20071;-73
2021/11/25 03:36:02;;;;;;;7.85;2.13;;;21.80;50.00;;;;;;5086900;28;20012;-72
2021/11/25 03:38:29;;;;;;;7.00;1.67;;;21.80;50.00;;;;;;5086305;28;20043;-72
2021/11/25 03:40:56;;;;;;;12.63;2.97;;;21.80;50.20;;;;;;5084595;28;20074;-72
2021/11/25 03:43:23;;;;;;;11.30;2.17;;;21.80;50.20;;;;;;5086036;28;20024;-73
2021/11/25 03:45:49;;;;;;;10.82;1.60;;;21.80;50.30;;;;;;5086004;28;20013;-72
2021/11/25 03:48:16;;;;;;;7.13;1.45;;;21.80;50.40;;;;;;5086577;28;20019;-73
2021/11/25 03:50:44;;;;;;;12.23;1.95;;;21.80;50.50;;;;;;5084917;28;20031;-73
2021/11/25 03:53:10;;;;;;;6.88;2.00;;;21.80;51.30;;;;;;5083995;28;20418;-73
2021/11/25 03:55:38;;;;;;;6.55;1.75;;;21.80;50.80;;;;;;5086696;28;20078;-72
2021/11/25 03:58:05;;;;;;;7.68;1.75;;;21.80;50.90;;;;;;5084515;28;20047;-74
2021/11/25 04:00:40;;;;;;;10.55;1.77;;;21.80;51.10;;;;;;5085399;28;20032;-73
2021/11/25 04:03:08;;;;;;;10.88;4.15;;;21.70;51.20;;;;;;5083190;28;20095;-72
2021/11/25 04:05:35;;;;;;;14.98;8.02;;;21.70;51.50;;;;;;5084153;28;20535;-73
2021/11/25 04:08:08;;;;;;;16.40;9.63;;;21.70;51.60;;;;;;5084586;28;20031;-77
2021/11/25 04:10:35;;;;;;;12.98;6.57;;;21.70;52.00;;;;;;5084332;28;20024;-73
2021/11/25 04:13:02;;;;;;;10.52;4.07;;;21.70;52.10;;;;;;5086623;28;20379;-74
2021/11/25 04:15:28;;;;;;;9.38;3.65;;;21.70;52.20;;;;;;5083339;28;20016;-72
2021/11/25 04:17:55;;;;;;;6.40;1.83;;;21.70;52.30;;;;;;5084851;28;20095;-72
2021/11/25 04:20:22;;;;;;;7.15;2.17;;;21.70;52.40;;;;;;5085618;28;20020;-72
2021/11/25 04:22:48;;;;;;;6.97;1.98;;;21.70;52.50;;;;;;5086913;28;20028;-72
2021/11/25 04:25:17;;;;;;;6.30;1.27;;;21.70;52.60;;;;;;5086918;28;20012;-73
2021/11/25 04:27:49;;;;;;;7.00;2.10;;;21.70;52.60;;;;;;5086310;28;20028;-72
2021/11/25 04:35:32;;;;;;;20.60;12.27;;;21.70;52.90;;;;;;5086659;28;20023;-72
2021/11/25 04:38:08;;;;;;;13.65;6.47;;;21.70;53.00;;;;;;5084654;28;20051;-70
2021/11/25 04:40:44;;;;;;;11.00;4.38;;;21.70;53.10;;;;;;5084446;28;20031;-73
2021/11/25 04:43:11;;;;;;;9.20;3.65;;;21.70;53.30;;;;;;5084242;28;20035;-70
2021/11/25 04:45:39;;;;;;;10.77;3.92;;;21.70;53.30;;;;;;5084446;28;20486;-70
2021/11/25 04:48:07;;;;;;;8.88;3.03;;;21.70;53.30;;;;;;5085622;28;20657;-70
2021/11/25 04:50:34;;;;;;;8.00;2.40;;;21.70;53.40;;;;;;5084233;28;20035;-70
2021/11/25 04:53:00;;;;;;;10.65;2.42;;;21.70;53.50;;;;;;5086712;28;20425;-71
2021/11/25 04:55:31;;;;;;;7.57;2.25;;;21.70;53.60;;;;;;5087297;28;20057;-71
2021/11/25 04:57:57;;;;;;;5.78;1.25;;;21.70;53.60;;;;;;5087091;28;20024;-71
2021/11/25 05:00:24;;;;;;;5.47;1.85;;;21.70;53.60;;;;;;5090266;28;20147;-71
2021/11/25 05:02:51;;;;;;;13.93;4.00;;;21.70;53.60;;;;;;5086968;28;20069;-71
2021/11/25 05:05:20;;;;;;;5.40;1.35;;;21.70;53.70;;;;;;5068716;28;20093;-72
2021/11/25 05:07:46;;;;;;;4.80;2.05;;;21.70;53.70;;;;;;5083833;28;20451;-72
2021/11/25 05:10:25;;;;;;;4.70;1.20;;;21.70;53.70;;;;;;5086125;28;20024;-71
2021/11/25 05:13:17;;;;;;;5.07;1.40;;;21.70;53.60;;;;;;5086352;28;20414;-72
2021/11/25 05:15:44;;;;;;;4.38;1.70;;;21.80;53.70;;;;;;5085213;28;20084;-71
2021/11/25 05:18:10;;;;;;;7.07;2.13;;;21.70;53.60;;;;;;5086321;28;20049;-71
2021/11/25 05:20:41;;;;;;;4.03;1.30;;;21.80;53.70;;;;;;5083501;28;20051;-72
2021/11/25 05:23:08;;;;;;;6.57;1.63;;;21.80;53.70;;;;;;5083909;28;20044;-71
2021/11/25 05:25:34;;;;;;;2.78;1.58;;;21.80;53.70;;;;;;5085706;28;20150;-71
2021/11/25 05:28:01;;;;;;;10.10;1.70;;;21.80;53.70;;;;;;5086868;28;20049;-72
2021/11/25 05:30:31;;;;;;;2.75;1.33;;;21.80;53.80;;;;;;5086919;28;20106;-72
2021/11/25 05:33:00;;;;;;;9.95;1.38;;;21.80;53.80;;;;;;5084191;28;20028;-72
2021/11/25 05:35:27;;;;;;;4.97;1.20;;;21.90;53.80;;;;;;5086833;28;20016;-72
2021/11/25 05:37:54;;;;;;;4.85;1.63;;;21.90;53.80;;;;;;5085686;28;20095;-72
2021/11/25 05:40:21;;;;;;;6.63;1.42;;;21.90;53.80;;;;;;5086218;28;20059;-71
2021/11/25 05:42:47;;;;;;;8.18;1.88;;;21.90;53.80;;;;;;5085170;28;20024;-72
2021/11/25 05:45:16;;;;;;;5.32;1.45;;;22.00;53.90;;;;;;5087134;28;20027;-71
2021/11/25 05:47:44;;;;;;;2.53;1.17;;;22.00;53.90;;;;;;5086771;28;20028;-71
2021/11/25 05:50:19;;;;;;;5.15;1.48;;;22.00;53.90;;;;;;5085673;28;20028;-72
2021/11/25 05:52:47;;;;;;;7.60;1.55;;;22.10;53.90;;;;;;5085902;28;20123;-71
2021/11/25 05:55:14;;;;;;;3.65;1.20;;;22.10;53.90;;;;;;5087494;28;20567;-71
2021/11/25 05:57:41;;;;;;;3.67;1.40;;;22.10;53.90;;;;;;5087221;28;20079;-71
2021/11/25 06:00:11;;;;;;;10.13;1.63;;;22.20;53.90;;;;;;5086028;28;20050;-71
2021/11/25 06:02:45;;;;;;;4.07;1.33;;;22.20;53.90;;;;;;5083939;28;20549;-71
2021/11/25 06:05:13;;;;;;;5.80;1.70;;;22.20;53.70;;;;;;5088304;28;20036;-72
2021/11/25 06:07:44;;;;;;;5.82;1.25;;;22.30;53.70;;;;;;5086604;28;20043;-72
2021/11/25 06:10:11;;;;;;;7.10;1.50;;;22.30;53.60;;;;;;5087625;28;20024;-72
2021/11/25 06:12:38;;;;;;;7.05;1.40;;;22.30;53.50;;;;;;5085181;28;20135;-72
2021/11/25 06:15:06;;;;;;;4.50;1.20;;;22.40;53.50;;;;;;5087759;28;20027;-72
2021/11/25 06:17:33;;;;;;;4.32;1.35;;;22.40;53.40;;;;;;5086315;28;20016;-72
2021/11/25 06:20:00;;;;;;;5.63;1.42;;;22.40;53.30;;;;;;5086874;28;20028;-72
2021/11/25 06:22:26;;;;;;;3.15;1.77;;;22.50;53.30;;;;;;5087528;28;20391;-72
2021/11/25 06:24:53;;;;;;;7.10;1.58;;;22.50;53.20;;;;;;5085831;28;20027;-72
2021/11/25 06:27:20;;;;;;;9.77;1.58;;;22.60;53.00;;;;;;5087469;28;20376;-71
2021/11/25 06:29:46;;;;;;;6.20;1.45;;;22.60;52.80;;;;;;5083139;28;20013;-72
2021/11/25 06:32:13;;;;;;;6.97;1.38;;;22.60;52.50;;;;;;5085390;28;20031;-71
2021/11/25 06:34:39;;;;;;;6.13;1.63;;;22.70;52.40;;;;;;5085473;28;20475;-72
2021/11/25 06:37:05;;;;;;;6.63;1.45;;;22.70;52.20;;;;;;5088209;28;20420;-71
2021/11/25 06:39:32;;;;;;;7.20;1.65;;;22.70;51.90;;;;;;5085269;28;20047;-72
2021/11/25 06:41:58;;;;;;;3.55;1.67;;;22.80;51.70;;;;;;5085142;28;20165;-73
2021/11/25 06:44:25;;;;;;;6.07;1.73;;;22.80;51.40;;;;;;5086380;28;20043;-72
2021/11/25 06:46:51;;;;;;;2.65;1.40;;;22.90;51.10;;;;;;5084871;28;20456;-72
2021/11/25 06:49:18;;;;;;;5.25;1.80;;;22.90;50.80;;;;;;5086807;28;20031;-72
2021/11/25 06:51:44;;;;;;;3.63;1.70;;;22.90;50.60;;;;;;5084799;28;20040;-72
2021/11/25 06:54:11;;;;;;;7.32;1.50;;;23.00;50.30;;;;;;5087711;28;20020;-71
2021/11/25 06:56:37;;;;;;;6.95;1.10;;;23.00;50.00;;;;;;5084889;28;20133;-71
2021/11/25 06:59:05;;;;;;;5.95;1.65;;;23.00;49.80;;;;;;5085652;28;20041;-72
2021/11/25 07:01:32;;;;;;;4.30;1.10;;;23.10;49.80;;;;;;5086612;28;20020;-71
2021/11/25 07:03:58;;;;;;;3.00;1.25;;;23.10;49.50;;;;;;5085714;28;20034;-71
2021/11/25 07:06:25;;;;;;;4.03;1.30;;;23.20;49.30;;;;;;5086589;28;20490;-72
2021/11/25 07:08:51;;;;;;;2.95;1.67;;;23.30;49.10;;;;;;5084497;28;20016;-72
2021/11/25 07:11:18;;;;;;;2.95;1.27;;;23.30;48.90;;;;;;5086727;28;20044;-72
2021/11/25 07:13:44;;;;;;;3.38;1.40;;;23.30;48.60;;;;;;5084564;28;20059;-72
2021/11/25 07:16:11;;;;;;;3.80;1.48;;;23.40;48.30;;;;;;5086265;28;20031;-72
2021/11/25 07:18:37;;;;;;;2.85;0.73;;;23.50;48.20;;;;;;5085685;28;20126;-72
2021/11/25 07:21:04;;;;;;;4.13;1.13;;;23.50;47.80;;;;;;5086804;28;20016;-72
2021/11/25 07:23:30;;;;;;;3.58;1.00;;;23.50;47.60;;;;;;5086734;28;20031;-72
2021/11/25 07:25:57;;;;;;;2.47;1.42;;;23.60;47.60;;;;;;5085755;28;20035;-72
2021/11/25 07:28:23;;;;;;;5.70;1.33;;;23.60;47.40;;;;;;5086606;28;20035;-72
2021/11/25 07:30:51;;;;;;;2.47;1.30;;;23.70;47.20;;;;;;5084953;28;20107;-72
2021/11/25 07:33:17;;;;;;;11.82;1.88;;;23.70;47.00;;;;;;5087460;28;20048;-72
2021/11/25 07:35:46;;;;;;;9.25;2.45;;;23.80;46.80;;;;;;5084334;28;20043;-71
2021/11/25 07:38:13;;;;;;;5.00;1.20;;;23.80;46.60;;;;;;5085212;28;20505;-72
2021/11/25 07:40:41;;;;;;;4.28;1.40;;;23.90;46.40;;;;;;5085343;28;20028;-72
2021/11/25 07:43:08;;;;;;;3.80;1.40;;;24.00;46.10;;;;;;5083971;28;20024;-71
2021/11/25 07:45:35;;;;;;;1.60;0.90;;;24.00;46.00;;;;;;5085335;28;20024;-71
2021/11/25 07:48:02;;;;;;;3.50;1.00;;;24.10;45.80;;;;;;5084071;28;20093;-73
2021/11/25 07:50:28;;;;;;;4.15;1.02;;;24.10;45.60;;;;;;5085597;28;20421;-73
2021/11/25 07:52:57;;;;;;;3.13;0.98;;;24.20;45.40;;;;;;5084746;28;20467;-72
2021/11/25 07:55:25;;;;;;;4.85;1.20;;;24.20;45.10;;;;;;5089539;28;20479;-72
2021/11/25 07:57:51;;;;;;;5.25;1.30;;;24.30;45.10;;;;;;5090696;28;20020;-72
2021/11/25 08:00:25;;;;;;;1.05;0.85;;;24.30;44.60;;;;;;5087480;28;20066;-72
2021/11/25 08:02:52;;;;;;;2.88;1.40;;;24.40;44.70;;;;;;5091154;28;20060;-71
2021/11/25 08:05:19;;;;;;;3.83;1.00;;;24.50;44.70;;;;;;5088397;28;20027;-73
2021/11/25 08:07:46;;;;;;;4.65;0.95;;;24.60;44.70;;;;;;5091639;28;20020;-72
2021/11/25 08:10:13;;;;;;;3.10;0.80;;;24.60;44.40;;;;;;5088525;28;20565;-72
2021/11/25 08:12:41;;;;;;;2.22;0.95;;;24.70;44.20;;;;;;5088297;28;20052;-72
2021/11/25 08:15:08;;;;;;;3.83;0.70;;;24.80;43.90;;;;;;5089409;28;20085;-72
2021/11/25 08:17:35;;;;;;;2.85;0.80;;;24.80;43.50;;;;;;5090156;28;20016;-72
2021/11/25 08:20:02;;;;;;;2.58;1.05;;;24.90;43.20;;;;;;5088420;28;20430;-72
2021/11/25 08:22:29;;;;;;;1.10;0.68;;;25.00;42.70;;;;;;5088167;28;20022;-72
2021/11/25 08:24:55;;;;;;;1.35;0.50;;;25.00;42.40;;;;;;5089385;28;20020;-72
2021/11/25 08:27:22;;;;;;;2.63;0.50;;;25.10;42.10;;;;;;5089102;28;20466;-72
2021/11/25 08:29:48;;;;;;;0.95;0.40;;;25.20;41.80;;;;;;5086037;28;20078;-72
2021/11/25 08:32:15;;;;;;;4.78;1.25;;;25.20;41.70;;;;;;5088205;28;20044;-72
2021/11/25 08:34:42;;;;;;;0.90;0.50;;;25.30;41.50;;;;;;5089333;28;20024;-72
2021/11/25 08:37:08;;;;;;;4.20;1.55;;;25.40;41.20;;;;;;5091112;28;20031;-73
2021/11/25 08:39:37;;;;;;;2.22;0.30;;;25.40;41.00;;;;;;5088485;28;20062;-71
2021/11/25 08:42:05;;;;;;;3.97;0.80;;;25.50;40.90;;;;;;5088095;28;20493;-72
2021/11/25 08:44:32;;;;;;;2.13;0.40;;;25.50;40.60;;;;;;5087880;28;20016;-72
2021/11/25 08:46:59;;;;;;;0.70;0.40;;;25.60;40.30;;;;;;5089874;28;20402;-72
2021/11/25 08:49:26;;;;;;;1.02;0.60;;;25.60;40.10;;;;;;5088023;28;20069;-72
2021/11/25 08:51:53;;;;;;;2.70;0.70;;;25.70;40.00;;;;;;5087099;28;20085;-72
2021/11/25 08:54:21;;;;;;;1.52;0.43;;;25.80;40.00;;;;;;5090374;28;20039;-71
2021/11/25 08:56:48;;;;;;;2.72;0.50;;;25.80;39.70;;;;;;5088127;28;20097;-72
2021/11/25 08:59:15;;;;;;;1.23;0.40;;;25.90;39.70;;;;;;5088441;28;20031;-72
2021/11/25 09:01:42;;;;;;;4.07;0.65;;;26.00;39.60;;;;;;5088336;28;20020;-72
2021/11/25 09:04:08;;;;;;;1.85;0.40;;;26.00;39.50;;;;;;5090440;28;20016;-72
2021/11/25 09:06:35;;;;;;;1.17;0.30;;;26.10;39.30;;;;;;5088393;28;20692;-72
2021/11/25 09:09:03;;;;;;;2.25;0.40;;;26.20;39.20;;;;;;5088084;28;20406;-72
2021/11/25 09:11:30;;;;;;;0.30;0.30;;;26.20;39.00;;;;;;5088226;28;20169;-72
2021/11/25 09:13:57;;;;;;;2.83;0.30;;;26.30;38.60;;;;;;5087373;28;20020;-72
2021/11/25 09:16:23;;;;;;;2.40;0.52;;;26.40;38.30;;;;;;5089636;28;20016;-72
2021/11/25 09:18:50;;;;;;;2.55;0.70;;;26.40;38.20;;;;;;5086422;28;20073;-72
2021/11/25 09:21:16;;;;;;;1.50;0.52;;;26.50;38.10;;;;;;5088820;28;20031;-73
2021/11/25 09:23:43;;;;;;;1.33;0.50;;;26.50;37.90;;;;;;5088282;28;20073;-72
2021/11/25 09:26:09;;;;;;;2.50;0.50;;;26.60;37.80;;;;;;5087482;28;20059;-71
2021/11/25 09:28:36;;;;;;;2.50;0.63;;;26.70;37.70;;;;;;5086704;28;20425;-72
2021/11/25 09:31:02;;;;;;;4.95;0.65;;;26.80;37.70;;;;;;5087917;28;20080;-71
2021/11/25 09:33:29;;;;;;;1.40;0.32;;;26.90;37.30;;;;;;5089586;28;20111;-73
2021/11/25 09:35:55;;;;;;;2.40;0.68;;;26.90;37.00;;;;;;5087300;28;20051;-72
2021/11/25 09:38:22;;;;;;;1.70;0.50;;;27.00;37.00;;;;;;5087301;28;20031;-72
2021/11/25 09:40:49;;;;;;;2.50;0.35;;;27.10;36.80;;;;;;5088281;28;20062;-72
2021/11/25 09:43:24;;;;;;;0.75;0.30;;;27.10;36.50;;;;;;5085513;28;20020;-74
2021/11/25 09:45:51;;;;;;;1.20;0.63;;;27.20;36.40;;;;;;5086725;28;20024;-73
2021/11/25 09:48:19;;;;;;;1.90;0.70;;;27.30;36.30;;;;;;5086462;28;20529;-71
2021/11/25 09:50:49;;;;;;;1.52;0.30;;;27.30;36.10;;;;;;5088582;28;20043;-72
2021/11/25 09:53:18;;;;;;;0.57;0.40;;;27.40;36.10;;;;;;5087128;28;20050;-72
2021/11/25 09:55:48;;;;;;;1.00;0.57;;;27.40;35.90;;;;;;5089038;28;20103;-72
2021/11/25 09:58:17;;;;;;;0.28;0.28;;;27.50;36.00;;;;;;5087529;28;20044;-72
2021/11/25 10:00:48;;;;;;;0.88;0.40;;;27.60;36.10;;;;;;5086883;28;20031;-72
2021/11/25 10:03:18;;;;;;;1.45;0.82;;;27.60;35.80;;;;;;5087074;28;20047;-72
2021/11/25 10:05:50;;;;;;;1.05;0.43;;;27.70;35.40;;;;;;5087736;28;20573;-72
2021/11/25 10:08:34;;;;;;;0.40;0.38;;;27.80;35.40;;;;;;5085589;28;20027;-72
2021/11/25 10:11:02;;;;;;;1.60;0.35;;;27.90;35.40;;;;;;5087501;28;20521;-72
2021/11/25 10:13:55;;;;;;;0.45;0.20;;;28.00;35.40;;;;;;5087674;28;20132;-72
2021/11/25 10:16:31;;;;;;;1.65;0.30;;;28.00;35.50;;;;;;5088080;28;20031;-73
2021/11/25 10:19:15;;;;;;;4.55;0.47;;;28.10;35.70;;;;;;5084933;28;20077;-72
2021/11/25 10:21:51;;;;;;;2.85;1.05;;;28.20;35.50;;;;;;5086605;28;20036;-72
2021/11/25 10:24:37;;;;;;;1.02;0.75;;;28.30;35.40;;;;;;5085391;28;20024;-72
2021/11/25 10:27:22;;;;;;;0.95;0.40;;;28.30;35.30;;;;;;5083599;28;20131;-72
2021/11/25 10:30:11;;;;;;;2.80;0.40;;;28.40;35.00;;;;;;5086122;28;20024;-72
2021/11/25 10:33:17;;;;;;;3.15;0.38;;;28.50;35.00;;;;;;5086945;28;20050;-71
2021/11/25 10:39:03;;;;;;;0.85;0.52;;;28.60;35.20;;;;;;5083792;28;20024;-72
2021/11/25 10:41:31;;;;;;;1.37;0.53;;;28.70;35.30;;;;;;5085263;28;20034;-73
2021/11/25 10:44:22;;;;;;;2.58;0.77;;;28.80;35.30;;;;;;5087210;28;20020;-73
2021/11/25 10:46:56;;;;;;;3.20;1.05;;;28.80;35.10;;;;;;5086931;28;20134;-74
2021/11/25 10:49:47;;;;;;;1.00;0.40;;;28.90;35.20;;;;;;5084488;28;20058;-73
2021/11/25 10:52:20;;;;;;;2.20;1.15;;;29.00;35.10;;;;;;5081659;28;20048;-73
2021/11/25 10:54:55;;;;;;;1.38;0.70;;;29.00;35.00;;;;;;5082379;28;20020;-73
2021/11/25 10:57:23;;;;;;;0.95;0.80;;;29.10;34.80;;;;;;5085888;28;20020;-73
2021/11/25 10:59:52;;;;;;;1.13;0.70;;;29.10;34.90;;;;;;5085553;28;20023;-72
2021/11/25 11:02:28;;;;;;;1.15;0.98;;;29.20;35.00;;;;;;5086662;28;20066;-71
2021/11/25 11:04:57;;;;;;;2.47;0.50;;;29.20;34.70;;;;;;5086198;28;20032;-74
2021/11/25 11:07:25;;;;;;;2.88;0.47;;;29.30;34.80;;;;;;5084587;28;20040;-73
2021/11/25 11:09:52;;;;;;;1.25;0.30;;;29.30;34.70;;;;;;5085457;28;20020;-74
2021/11/25 11:12:40;;;;;;;3.25;0.50;;;29.40;34.70;;;;;;5086635;28;20052;-73
2021/11/25 11:20:36;;;;;;;5.03;0.70;;;29.60;34.60;;;;;;5085040;28;20043;-73
2021/11/25 11:23:08;;;;;;;2.08;0.50;;;29.60;34.50;;;;;;5086397;28;20419;-73
2021/11/25 11:25:36;;;;;;;1.10;0.52;;;29.60;34.40;;;;;;5083864;28;20093;-73
2021/11/25 11:28:05;;;;;;;1.05;0.50;;;29.70;34.40;;;;;;5087201;28;20024;-73
2021/11/25 11:30:35;;;;;;;4.45;0.50;;;29.70;34.30;;;;;;5089188;28;20116;-73
2021/11/25 11:33:06;;;;;;;1.20;0.30;;;29.80;34.50;;;;;;5089837;28;20048;-74
2021/11/25 11:35:33;;;;;;;1.15;0.50;;;29.90;34.40;;;;;;5091136;28;20024;-74
2021/11/25 11:38:02;;;;;;;1.45;0.73;;;29.90;34.30;;;;;;5090124;28;20027;-73
2021/11/25 11:40:33;;;;;;;0.68;0.40;;;29.90;34.20;;;;;;5090030;28;20031;-72
2021/11/25 11:43:04;;;;;;;1.23;0.52;;;29.90;34.10;;;;;;5089624;28;20013;-72
2021/11/25 11:45:33;;;;;;;2.08;0.40;;;30.00;34.20;;;;;;5090236;28;20388;-72
2021/11/25 11:48:05;;;;;;;4.88;0.70;;;30.00;34.10;;;;;;5091488;28;20020;-72
2021/11/25 11:50:45;;;;;;;2.50;0.50;;;30.10;34.00;;;;;;5088418;28;20023;-73
2021/11/25 11:53:14;;;;;;;2.47;0.47;;;30.10;33.90;;;;;;5088740;28;20117;-72
2021/11/25 11:55:47;;;;;;;1.00;0.60;;;30.10;33.80;;;;;;5091098;28;20426;-72
2021/11/25 11:58:26;;;;;;;3.20;0.50;;;30.20;33.90;;;;;;5089172;28;20020;-73
2021/11/25 12:01:16;;;;;;;3.00;0.60;;;30.30;34.00;;;;;;5090654;28;20468;-73
2021/11/25 12:03:53;;;;;;;2.75;0.40;;;30.30;33.50;;;;;;5074231;28;20956;-73
2021/11/25 12:06:49;;;;;;;0.75;0.65;;;30.30;33.20;;;;;;5088931;28;20465;-72
2021/11/25 12:09:30;;;;;;;0.52;0.47;;;30.30;33.10;;;;;;5072609;28;20039;-72
2021/11/25 12:12:06;;;;;;;1.38;0.45;;;30.30;33.30;;;;;;5086305;28;20040;-72
2021/11/25 12:14:33;;;;;;;0.43;0.32;;;30.30;34.20;;;;;;5088032;28;20043;-72
2021/11/25 12:17:11;;;;;;;1.27;0.55;;;30.40;33.60;;;;;;5087191;28;20112;-73
2021/11/25 12:19:43;;;;;;;2.08;1.00;;;30.40;33.60;;;;;;5086680;28;20065;-73
2021/11/25 12:22:19;;;;;;;3.28;0.68;;;30.50;33.60;;;;;;5090188;28;20035;-72
2021/11/25 12:24:55;;;;;;;4.28;0.80;;;30.60;33.80;;;;;;5087802;28;20043;-72
2021/11/25 12:35:18;;;;;;;1.15;0.70;;;30.80;33.00;;;;;;5087293;28;20024;-72
2021/11/25 12:37:47;;;;;;;1.10;0.50;;;30.90;33.00;;;;;;5089284;28;20028;-72
2021/11/25 12:40:23;;;;;;;3.22;0.50;;;30.90;33.00;;;;;;5088036;28;20085;-73
2021/11/25 12:42:53;;;;;;;0.30;0.30;;;31.00;33.00;;;;;;5087995;28;20528;-72
2021/11/25 12:45:27;;;;;;;1.63;0.60;;;31.00;32.90;;;;;;5087405;28;20016;-72
2021/11/25 12:48:10;;;;;;;1.25;0.40;;;31.00;32.80;;;;;;5089229;28;20420;-72
2021/11/25 12:50:50;;;;;;;1.33;0.73;;;31.00;32.80;;;;;;5086997;28;20062;-73
2021/11/25 12:53:17;;;;;;;2.05;0.60;;;31.00;32.80;;;;;;5088338;28;20478;-72
2021/11/25 12:56:06;;;;;;;2.55;0.63;;;31.10;32.70;;;;;;5088882;28;20047;-73
2021/11/25 12:58:34;;;;;;;0.85;0.50;;;31.10;32.70;;;;;;5086426;28;20115;-73
2021/11/25 13:01:02;;;;;;;1.30;0.43;;;31.10;32.60;;;;;;5086552;28;20078;-72
2021/11/25 13:03:29;;;;;;;0.88;0.52;;;31.10;32.60;;;;;;5085643;28;20123;-72
2021/11/25 13:05:57;;;;;;;2.35;0.50;;;31.10;32.50;;;;;;5089981;28;20042;-72
2021/11/25 13:08:39;;;;;;;2.45;0.90;;;31.20;32.60;;;;;;5085206;28;20902;-72
2021/11/25 13:11:24;;;;;;;3.08;0.75;;;31.20;32.40;;;;;;5087962;28;20024;-72
2021/11/25 13:13:53;;;;;;;2.35;0.60;;;31.20;32.20;;;;;;5088813;28;20044;-72
2021/11/25 13:16:21;;;;;;;0.60;0.30;;;31.20;32.20;;;;;;5088026;28;20028;-72
2021/11/25 13:19:07;;;;;;;1.02;0.70;;;31.20;32.00;;;;;;5087479;28;20069;-72